createdAt,value
2022-11-16T00:02:05.788Z,35.25
2022-11-16T00:02:56.033Z,32.42
2022-11-16T00:03:43.553Z,37.40
2022-11-16T00:04:31.213Z,34.55
2022-11-16T00:05:22.015Z,32.58
2022-11-16T00:06:14.651Z,33.42
2022-11-16T00:07:07.382Z,31.98
2022-11-16T00:07:55.751Z,29.73
2022-11-16T00:09:07.157Z,31.62
2022-11-16T00:11:07.826Z,31.42
2022-11-16T00:11:57.260Z,32.85
2022-11-16T00:12:44.246Z,34.60
2022-11-16T00:13:33.091Z,33.88
2022-11-16T00:14:20.615Z,33.55
2022-11-16T00:15:07.771Z,35.20
2022-11-16T00:15:56.362Z,33.45
2022-11-16T00:16:43.300Z,35.33
2022-11-16T00:17:30.215Z,31.12
2022-11-16T00:18:17.606Z,34.80
2022-11-16T00:19:06.050Z,32.70
2022-11-16T00:19:53.235Z,29.90
2022-11-16T00:20:40.067Z,28.33
2022-11-16T00:21:27.709Z,30.40
2022-11-16T00:22:14.584Z,32.72
2022-11-16T00:23:01.436Z,30.35
2022-11-16T00:23:48.462Z,28.70
2022-11-16T00:24:35.705Z,29.20
2022-11-16T00:25:22.603Z,28.80
2022-11-16T00:26:10.613Z,32.10
2022-11-16T00:26:57.528Z,28.42
2022-11-16T00:27:44.949Z,32.33
2022-11-16T00:28:32.174Z,33.97
2022-11-16T00:29:21.426Z,33.50
2022-11-16T00:31:05.350Z,34.90
2022-11-16T00:31:52.830Z,30.50
2022-11-16T00:32:39.618Z,27.58
2022-11-16T00:33:26.663Z,34.95
2022-11-16T00:34:13.683Z,33.85
2022-11-16T00:35:01.452Z,32.50
2022-11-16T00:35:50.242Z,32.10
2022-11-16T00:36:37.146Z,32.20
2022-11-16T00:37:23.913Z,30.60
2022-11-16T00:38:12.206Z,28.10
2022-11-16T00:39:00.813Z,29.08
2022-11-16T00:39:49.371Z,29.75
2022-11-16T00:40:36.851Z,30.88
2022-11-16T00:41:24.332Z,31.52
2022-11-16T00:42:12.872Z,32.50
2022-11-16T00:43:01.292Z,27.33
2022-11-16T00:43:50.034Z,29.77
2022-11-16T00:44:37.776Z,30.27
2022-11-16T00:45:25.414Z,29.40
2022-11-16T00:46:13.931Z,29.33
2022-11-16T00:47:01.044Z,29.67
2022-11-16T00:48:00.625Z,30.50
2022-11-16T00:48:48.175Z,31.37
2022-11-16T00:49:36.245Z,36.95
2022-11-16T00:50:23.227Z,40.03
2022-11-16T00:51:11.541Z,39.33
2022-11-16T00:51:59.288Z,38.08
2022-11-16T00:52:47.185Z,35.75
2022-11-16T00:53:35.076Z,42.22
2022-11-16T00:54:27.453Z,40.33
2022-11-16T00:55:17.503Z,40.55
2022-11-16T00:56:06.336Z,38.47
2022-11-16T00:56:56.046Z,35.20
2022-11-16T00:57:45.814Z,38.20
2022-11-16T00:58:36.889Z,42.40
2022-11-16T00:59:27.034Z,42.28
2022-11-16T01:00:18.317Z,39.17
2022-11-16T01:01:12.733Z,44.05
2022-11-16T01:02:02.707Z,41.37
2022-11-16T01:02:54.873Z,36.78
2022-11-16T01:03:50.192Z,41.10
2022-11-16T01:04:41.756Z,41.60
2022-11-16T01:05:29.345Z,38.38
2022-11-16T01:06:18.837Z,41.83
2022-11-16T01:07:08.169Z,41.05
2022-11-16T01:07:58.744Z,39.07
2022-11-16T01:08:49.081Z,42.28
2022-11-16T01:09:38.764Z,42.42
2022-11-16T01:10:30.618Z,42.90
2022-11-16T01:11:38.322Z,39.85
2022-11-16T01:12:28.059Z,41.80
2022-11-16T01:13:18.596Z,40.50
2022-11-16T01:14:11.566Z,44.33
2022-11-16T01:15:04.348Z,39.30
2022-11-16T01:15:54.723Z,44.97
2022-11-16T01:16:44.776Z,42.65
2022-11-16T01:17:34.281Z,40.67
2022-11-16T01:18:25.629Z,40.17
2022-11-16T01:19:14.804Z,45.83
2022-11-16T01:20:06.938Z,45.88
2022-11-16T01:20:55.568Z,43.87
2022-11-16T01:21:46.330Z,45.15
2022-11-16T01:22:42.616Z,43.87
2022-11-16T01:23:35.649Z,45.45
2022-11-16T01:24:25.620Z,47.28
2022-11-16T01:25:18.434Z,47.10
2022-11-16T01:26:07.064Z,48.45
2022-11-16T01:26:59.797Z,45.10
2022-11-16T01:27:51.943Z,45.95
2022-11-16T01:28:43.346Z,49.03
2022-11-16T01:29:35.495Z,50.83
2022-11-16T01:30:25.362Z,48.55
2022-11-16T01:31:15.933Z,55.63
2022-11-16T01:32:05.389Z,48.75
2022-11-16T01:32:57.425Z,49.65
2022-11-16T01:33:49.525Z,53.78
2022-11-16T01:34:38.960Z,52.10
2022-11-16T01:35:29.633Z,51.17
2022-11-16T01:36:17.947Z,55.00
2022-11-16T01:37:08.537Z,50.70
2022-11-16T01:37:59.116Z,52.65
2022-11-16T01:39:38.815Z,57.72
2022-11-16T01:40:33.178Z,50.63
2022-11-16T01:41:26.875Z,55.10
2022-11-16T01:42:25.965Z,56.33
2022-11-16T01:43:25.672Z,51.47
2022-11-16T01:44:35.065Z,50.88
2022-11-16T01:45:53.603Z,45.35
2022-11-16T01:46:43.661Z,51.47
2022-11-16T01:47:34.553Z,54.60
2022-11-16T01:48:31.730Z,53.15
2022-11-16T01:49:24.996Z,52.38
2022-11-16T01:50:18.899Z,53.87
2022-11-16T01:51:09.292Z,52.75
2022-11-16T01:52:02.434Z,49.20
2022-11-16T01:53:00.757Z,52.47
2022-11-16T01:53:51.945Z,49.92
2022-11-16T01:54:46.014Z,47.92
2022-11-16T01:55:36.819Z,48.58
2022-11-16T01:56:27.886Z,50.90
2022-11-16T01:57:26.600Z,49.80
2022-11-16T01:58:22.636Z,47.38
2022-11-16T01:59:13.533Z,48.40
2022-11-16T02:00:07.028Z,44.97
2022-11-16T02:00:56.546Z,49.63
2022-11-16T02:01:47.304Z,51.80
2022-11-16T02:02:37.334Z,53.25
2022-11-16T02:03:27.468Z,50.60
2022-11-16T02:04:17.537Z,50.95
2022-11-16T02:05:08.363Z,45.83
2022-11-16T02:06:14.934Z,44.40
2022-11-16T02:07:18.329Z,48.42
2022-11-16T02:08:36.748Z,43.40
2022-11-16T02:09:59.409Z,46.83
2022-11-16T02:10:47.960Z,45.75
2022-11-16T02:11:57.020Z,47.03
2022-11-16T02:12:54.839Z,45.65
2022-11-16T02:14:16.805Z,46.13
2022-11-16T02:15:33.365Z,48.80
2022-11-16T02:16:41.806Z,44.55
2022-11-16T02:18:07.226Z,46.95
2022-11-16T02:19:15.144Z,46.47
2022-11-16T02:20:35.076Z,47.00
2022-11-16T02:21:46.775Z,44.42
2022-11-16T02:22:58.502Z,42.67
2022-11-16T02:24:23.559Z,44.60
2022-11-16T02:25:31.008Z,41.85
2022-11-16T02:26:32.127Z,44.03
2022-11-16T02:27:39.686Z,43.65
2022-11-16T02:28:37.033Z,43.58
2022-11-16T02:29:36.276Z,42.28
2022-11-16T02:30:28.667Z,42.72
2022-11-16T02:31:22.387Z,44.72
2022-11-16T02:32:16.775Z,43.22
2022-11-16T02:33:13.131Z,45.78
2022-11-16T02:34:02.295Z,46.03
2022-11-16T02:35:15.210Z,41.85
2022-11-16T02:36:06.624Z,42.00
2022-11-16T02:36:57.970Z,43.90
2022-11-16T02:37:50.709Z,49.10
2022-11-16T02:38:49.500Z,49.45
2022-11-16T02:39:42.014Z,50.10
2022-11-16T02:40:33.726Z,49.55
2022-11-16T02:41:23.908Z,47.08
2022-11-16T02:42:17.467Z,50.28
2022-11-16T02:43:13.135Z,48.33
2022-11-16T02:44:12.939Z,47.65
2022-11-16T02:45:07.512Z,51.30
2022-11-16T02:46:00.782Z,46.55
2022-11-16T02:46:52.626Z,48.63
2022-11-16T02:47:44.567Z,46.83
2022-11-16T02:48:42.919Z,49.08
2022-11-16T02:49:35.794Z,52.05
2022-11-16T02:50:25.941Z,51.75
2022-11-16T02:51:15.180Z,48.63
2022-11-16T02:52:07.588Z,47.75
2022-11-16T02:52:56.218Z,46.40
2022-11-16T02:54:08.997Z,49.58
2022-11-16T02:54:57.664Z,45.83
2022-11-16T02:55:47.284Z,49.80
2022-11-16T02:57:00.527Z,41.17
2022-11-16T02:57:59.651Z,44.50
2022-11-16T02:58:49.391Z,46.75
2022-11-16T02:59:47.605Z,49.28
2022-11-16T03:00:59.625Z,49.25
2022-11-16T03:02:08.363Z,46.35
2022-11-16T03:03:29.915Z,43.75
2022-11-16T03:04:48.250Z,43.80
2022-11-16T03:05:49.277Z,47.33
2022-11-16T03:06:53.705Z,45.67
2022-11-16T03:07:57.984Z,41.92
2022-11-16T03:08:55.658Z,47.00
2022-11-16T03:09:47.103Z,42.83
2022-11-16T03:10:57.543Z,44.92
2022-11-16T03:12:01.836Z,42.30
2022-11-16T03:12:50.363Z,41.37
2022-11-16T03:13:40.214Z,43.55
2022-11-16T03:14:39.415Z,43.97
2022-11-16T03:15:29.365Z,47.00
2022-11-16T03:16:50.484Z,46.10
2022-11-16T03:18:00.091Z,45.05
2022-11-16T03:18:50.950Z,47.10
2022-11-16T03:19:51.255Z,40.75
2022-11-16T03:20:39.647Z,42.88
2022-11-16T03:21:58.689Z,41.55
2022-11-16T03:22:51.612Z,42.28
2022-11-16T03:23:42.040Z,45.05
2022-11-16T03:24:33.386Z,48.95
2022-11-16T03:25:25.953Z,43.05
2022-11-16T03:26:19.019Z,40.97
2022-11-16T03:27:26.590Z,41.45
2022-11-16T03:28:20.348Z,41.83
2022-11-16T03:29:14.931Z,40.83
2022-11-16T03:30:11.328Z,42.83
2022-11-16T03:31:20.649Z,42.45
2022-11-16T03:32:14.345Z,42.03
2022-11-16T03:33:09.355Z,41.25
2022-11-16T03:33:59.056Z,42.70
2022-11-16T03:34:55.243Z,42.20
2022-11-16T03:35:59.594Z,42.10
2022-11-16T03:36:48.501Z,44.47
2022-11-16T03:37:35.940Z,42.53
2022-11-16T03:38:23.668Z,43.42
2022-11-16T03:39:28.200Z,43.53
2022-11-16T03:40:16.984Z,41.78
2022-11-16T03:41:07.291Z,41.67
2022-11-16T03:42:11.491Z,40.15
2022-11-16T03:43:00.010Z,39.08
2022-11-16T03:43:47.414Z,41.10
2022-11-16T03:44:35.356Z,41.83
2022-11-16T03:45:22.259Z,41.92
2022-11-16T03:46:09.464Z,46.83
2022-11-16T03:46:56.478Z,43.53
2022-11-16T03:47:43.282Z,41.85
2022-11-16T03:48:37.694Z,40.42
2022-11-16T03:49:24.517Z,43.58
2022-11-16T03:50:11.778Z,42.67
2022-11-16T03:50:58.725Z,44.00
2022-11-16T03:51:45.558Z,38.65
2022-11-16T03:52:32.443Z,43.40
2022-11-16T03:53:19.305Z,44.15
2022-11-16T03:54:06.210Z,45.95
2022-11-16T03:54:53.000Z,42.70
2022-11-16T03:55:39.834Z,45.28
2022-11-16T03:56:26.668Z,42.10
2022-11-16T03:57:17.658Z,43.80
2022-11-16T03:58:05.137Z,47.17
2022-11-16T03:58:51.933Z,44.78
2022-11-16T03:59:38.743Z,41.63
2022-11-16T04:00:25.572Z,43.83
2022-11-16T04:01:12.370Z,41.20
2022-11-16T04:01:59.215Z,41.90
2022-11-16T04:02:46.143Z,42.58
2022-11-16T04:03:32.942Z,45.42
2022-11-16T04:04:38.505Z,43.33
2022-11-16T04:05:43.995Z,42.80
2022-11-16T04:06:49.614Z,39.00
2022-11-16T04:07:55.205Z,41.47
2022-11-16T04:09:00.952Z,38.90
2022-11-16T04:10:06.560Z,40.40
2022-11-16T04:11:12.068Z,42.62
2022-11-16T04:12:17.569Z,43.95
2022-11-16T04:13:23.220Z,41.53
2022-11-16T04:14:33.849Z,40.55
2022-11-16T04:15:39.359Z,43.13
2022-11-16T04:16:44.621Z,37.25
2022-11-16T04:17:50.540Z,40.95
2022-11-16T04:18:55.997Z,42.83
2022-11-16T04:20:01.662Z,41.83
2022-11-16T04:21:07.179Z,38.75
2022-11-16T04:22:15.804Z,43.38
2022-11-16T04:23:28.025Z,42.10
2022-11-16T04:24:17.641Z,38.97
2022-11-16T04:25:17.706Z,41.78
2022-11-16T04:26:07.577Z,45.60
2022-11-16T04:27:16.102Z,40.03
2022-11-16T04:28:16.709Z,38.95
2022-11-16T04:29:03.613Z,40.08
2022-11-16T04:29:50.643Z,41.35
2022-11-16T04:31:06.565Z,39.55
2022-11-16T04:32:12.190Z,41.03
2022-11-16T04:33:17.918Z,40.05
2022-11-16T04:34:23.581Z,41.00
2022-11-16T04:35:29.054Z,38.97
2022-11-16T04:36:35.375Z,42.15
2022-11-16T04:37:41.158Z,42.92
2022-11-16T04:38:27.917Z,41.63
2022-11-16T04:39:14.813Z,43.22
2022-11-16T04:40:01.603Z,40.88
2022-11-16T04:40:48.558Z,44.28
2022-11-16T04:41:54.148Z,44.55
2022-11-16T04:42:41.423Z,44.83
2022-11-16T04:43:28.236Z,44.35
2022-11-16T04:44:15.111Z,44.03
2022-11-16T04:45:20.539Z,44.33
2022-11-16T04:46:26.307Z,44.00
2022-11-16T04:47:13.251Z,41.80
2022-11-16T04:48:00.156Z,44.15
2022-11-16T04:48:47.003Z,42.53
2022-11-16T04:49:34.051Z,45.95
2022-11-16T04:50:21.148Z,44.03
2022-11-16T04:51:07.979Z,43.28
2022-11-16T04:51:54.917Z,40.05
2022-11-16T04:52:41.709Z,45.15
2022-11-16T04:53:28.491Z,43.90
2022-11-16T04:54:15.482Z,42.97
2022-11-16T04:55:02.446Z,39.53
2022-11-16T04:55:51.258Z,40.78
2022-11-16T04:56:38.191Z,45.38
2022-11-16T04:57:25.003Z,44.00
2022-11-16T04:58:12.015Z,43.80
2022-11-16T04:58:58.919Z,43.17
2022-11-16T04:59:45.823Z,42.30
2022-11-16T05:00:32.719Z,44.38
2022-11-16T05:01:39.587Z,44.92
2022-11-16T05:02:26.698Z,44.67
2022-11-16T05:03:13.578Z,43.30
2022-11-16T05:04:00.423Z,43.75
2022-11-16T05:04:47.354Z,42.85
2022-11-16T05:05:34.184Z,45.17
2022-11-16T05:06:21.077Z,42.70
2022-11-16T05:07:13.651Z,44.35
2022-11-16T05:08:00.678Z,47.67
2022-11-16T05:08:47.506Z,45.70
2022-11-16T05:09:34.297Z,43.95
2022-11-16T05:10:21.870Z,45.97
2022-11-16T05:11:09.789Z,48.05
2022-11-16T05:11:57.325Z,46.08
2022-11-16T05:12:44.712Z,47.65
2022-11-16T05:13:36.511Z,49.75
2022-11-16T05:14:23.923Z,48.03
2022-11-16T05:15:11.225Z,45.83
2022-11-16T05:15:58.582Z,44.30
2022-11-16T05:16:45.793Z,49.20
2022-11-16T05:17:33.187Z,47.42
2022-11-16T05:18:20.485Z,49.85
2022-11-16T05:19:40.551Z,44.60
2022-11-16T05:20:46.725Z,44.60
2022-11-16T05:21:34.811Z,50.15
2022-11-16T05:22:22.143Z,48.65
2022-11-16T05:23:31.177Z,46.17
2022-11-16T05:24:35.854Z,47.80
2022-11-16T05:25:24.573Z,56.13
2022-11-16T05:26:11.726Z,55.45
2022-11-16T05:26:58.673Z,50.30
2022-11-16T05:27:45.451Z,49.08
2022-11-16T05:28:32.561Z,53.15
2022-11-16T05:29:19.746Z,52.38
2022-11-16T05:30:07.903Z,47.92
2022-11-16T05:30:54.841Z,49.40
2022-11-16T05:31:41.841Z,46.85
2022-11-16T05:32:28.750Z,48.03
2022-11-16T05:33:16.737Z,45.45
2022-11-16T05:34:03.848Z,49.65
2022-11-16T05:34:50.770Z,47.28
2022-11-16T05:35:37.710Z,50.58
2022-11-16T05:36:24.684Z,47.47
2022-11-16T05:37:12.013Z,51.37
2022-11-16T05:37:58.975Z,46.92
2022-11-16T05:38:45.947Z,45.92
2022-11-16T05:39:32.949Z,51.53
2022-11-16T05:40:19.812Z,48.67
2022-11-16T05:41:06.742Z,46.00
2022-11-16T05:41:54.227Z,47.97
2022-11-16T05:42:41.198Z,46.65
2022-11-16T05:43:29.710Z,48.60
2022-11-16T05:44:17.045Z,46.55
2022-11-16T05:45:04.261Z,50.28
2022-11-16T05:45:51.113Z,49.00
2022-11-16T05:46:38.131Z,49.90
2022-11-16T05:47:25.058Z,51.25
2022-11-16T05:48:12.236Z,47.33
2022-11-16T05:48:59.242Z,49.22
2022-11-16T05:49:46.259Z,46.00
2022-11-16T05:50:34.175Z,47.62
2022-11-16T05:51:23.153Z,36.65
2022-11-16T05:52:10.132Z,48.58
2022-11-16T05:52:57.151Z,50.35
2022-11-16T05:53:44.705Z,45.30
2022-11-16T05:54:31.708Z,46.83
2022-11-16T05:55:18.856Z,46.53
2022-11-16T05:56:06.253Z,50.85
2022-11-16T05:56:54.490Z,47.85
2022-11-16T05:57:43.544Z,46.05
2022-11-16T05:58:30.869Z,49.15
2022-11-16T05:59:19.831Z,49.30
2022-11-16T06:00:07.493Z,48.45
2022-11-16T06:00:54.347Z,47.40
2022-11-16T06:01:51.709Z,46.33
2022-11-16T06:02:40.690Z,51.05
2022-11-16T06:03:31.386Z,49.33
2022-11-16T06:05:11.933Z,44.90
2022-11-16T06:05:59.316Z,50.28
2022-11-16T06:06:46.349Z,48.65
2022-11-16T06:07:34.393Z,52.33
2022-11-16T06:08:21.887Z,47.50
2022-11-16T06:09:10.749Z,50.50
2022-11-16T06:09:57.657Z,51.03
2022-11-16T06:10:44.644Z,48.13
2022-11-16T06:11:35.794Z,48.95
2022-11-16T06:12:23.348Z,48.87
2022-11-16T06:13:10.196Z,49.38
2022-11-16T06:13:57.203Z,51.47
2022-11-16T06:14:44.204Z,49.95
2022-11-16T06:15:31.366Z,48.30
2022-11-16T06:16:18.397Z,50.97
2022-11-16T06:17:05.351Z,47.83
2022-11-16T06:17:52.216Z,50.12
2022-11-16T06:18:44.278Z,45.60
2022-11-16T06:19:32.637Z,49.72
2022-11-16T06:20:19.819Z,50.08
2022-11-16T06:21:07.549Z,46.30
2022-11-16T06:21:54.636Z,48.28
2022-11-16T06:22:41.478Z,47.88
2022-11-16T06:23:28.542Z,51.95
2022-11-16T06:24:15.601Z,47.22
2022-11-16T06:25:02.713Z,46.65
2022-11-16T06:25:56.093Z,50.58
2022-11-16T06:26:43.095Z,49.47
2022-11-16T06:27:30.260Z,47.83
2022-11-16T06:28:17.107Z,50.38
2022-11-16T06:29:04.544Z,49.55
2022-11-16T06:29:51.462Z,52.78
2022-11-16T06:30:40.538Z,49.28
2022-11-16T06:31:27.568Z,49.17
2022-11-16T06:32:14.985Z,49.05
2022-11-16T06:33:02.117Z,47.78
2022-11-16T06:33:49.153Z,48.97
2022-11-16T06:34:36.134Z,46.20
2022-11-16T06:35:23.221Z,46.47
2022-11-16T06:36:10.269Z,46.35
2022-11-16T06:36:57.750Z,47.62
2022-11-16T06:37:44.648Z,44.92
2022-11-16T06:38:31.866Z,51.45
2022-11-16T06:39:19.114Z,45.95
2022-11-16T06:40:06.849Z,47.97
2022-11-16T06:40:55.596Z,47.08
2022-11-16T06:41:42.605Z,49.42
2022-11-16T06:42:29.957Z,47.35
2022-11-16T06:43:16.847Z,48.35
2022-11-16T06:44:03.857Z,45.72
2022-11-16T06:44:51.235Z,48.97
2022-11-16T06:45:38.773Z,52.72
2022-11-16T06:46:26.143Z,48.67
2022-11-16T06:47:13.230Z,49.83
2022-11-16T06:48:00.282Z,48.78
2022-11-16T06:48:47.225Z,57.30
2022-11-16T06:49:34.545Z,46.53
2022-11-16T06:50:21.574Z,47.17
2022-11-16T06:51:08.615Z,54.63
2022-11-16T06:51:55.986Z,48.38
2022-11-16T06:52:43.084Z,51.10
2022-11-16T06:53:30.054Z,45.85
2022-11-16T06:54:16.853Z,47.72
2022-11-16T06:55:03.887Z,45.15
2022-11-16T06:55:50.783Z,48.63
2022-11-16T06:56:37.816Z,47.97
2022-11-16T06:57:24.769Z,49.00
2022-11-16T06:58:12.769Z,49.53
2022-11-16T06:58:59.761Z,50.92
2022-11-16T06:59:46.695Z,51.17
2022-11-16T07:00:33.787Z,49.13
2022-11-16T07:01:20.759Z,52.53
2022-11-16T07:02:07.824Z,53.53
2022-11-16T07:02:54.880Z,50.42
2022-11-16T07:03:41.944Z,56.35
2022-11-16T07:04:28.972Z,52.60
2022-11-16T07:05:18.412Z,50.90
2022-11-16T07:06:07.761Z,55.78
2022-11-16T07:06:54.725Z,50.12
2022-11-16T07:07:41.630Z,49.58
2022-11-16T07:08:28.626Z,51.92
2022-11-16T07:09:15.545Z,57.13
2022-11-16T07:10:02.914Z,50.17
2022-11-16T07:10:49.883Z,53.03
2022-11-16T07:11:37.320Z,53.67
2022-11-16T07:12:24.286Z,51.50
2022-11-16T07:13:11.267Z,56.60
2022-11-16T07:13:58.663Z,49.85
2022-11-16T07:14:46.031Z,52.75
2022-11-16T07:15:33.647Z,49.50
2022-11-16T07:16:21.401Z,53.65
2022-11-16T07:17:09.835Z,49.88
2022-11-16T07:17:57.020Z,50.47
2022-11-16T07:18:43.871Z,51.03
2022-11-16T07:19:30.946Z,50.75
2022-11-16T07:20:18.883Z,48.75
2022-11-16T07:21:14.087Z,50.40
2022-11-16T07:22:01.032Z,54.97
2022-11-16T07:22:47.995Z,47.85
2022-11-16T07:23:35.554Z,49.03
2022-11-16T07:24:22.718Z,49.65
2022-11-16T07:25:09.962Z,47.42
2022-11-16T07:26:00.736Z,47.53
2022-11-16T07:26:47.654Z,49.28
2022-11-16T07:27:34.645Z,51.50
2022-11-16T07:28:21.518Z,46.90
2022-11-16T07:29:08.478Z,45.63
2022-11-16T07:29:55.768Z,49.70
2022-11-16T07:30:44.876Z,49.33
2022-11-16T07:31:31.792Z,49.92
2022-11-16T07:32:18.793Z,45.42
2022-11-16T07:33:05.629Z,51.78
2022-11-16T07:33:53.000Z,47.53
2022-11-16T07:34:39.909Z,49.25
2022-11-16T07:35:26.918Z,49.35
2022-11-16T07:36:15.243Z,48.78
2022-11-16T07:37:02.380Z,53.38
2022-11-16T07:37:49.294Z,45.72
2022-11-16T07:38:36.809Z,46.78
2022-11-16T07:39:23.885Z,51.15
2022-11-16T07:40:11.124Z,49.75
2022-11-16T07:41:02.227Z,52.70
2022-11-16T07:41:53.510Z,51.90
2022-11-16T07:42:40.498Z,46.88
2022-11-16T07:43:30.064Z,50.00
2022-11-16T07:44:17.008Z,48.85
2022-11-16T07:45:04.088Z,48.17
2022-11-16T07:45:53.343Z,45.75
2022-11-16T07:46:48.477Z,49.35
2022-11-16T07:47:37.304Z,48.67
2022-11-16T07:48:24.777Z,49.08
2022-11-16T07:49:18.979Z,44.28
2022-11-16T07:50:06.795Z,47.90
2022-11-16T07:50:54.122Z,44.58
2022-11-16T07:51:41.059Z,48.15
2022-11-16T07:52:28.028Z,50.03
2022-11-16T07:53:15.037Z,50.50
2022-11-16T07:54:02.214Z,46.88
2022-11-16T07:54:49.067Z,46.22
2022-11-16T07:55:35.955Z,48.63
2022-11-16T07:56:23.044Z,49.67
2022-11-16T07:57:12.826Z,47.78
2022-11-16T07:57:59.965Z,46.30
2022-11-16T07:58:46.870Z,48.40
2022-11-16T07:59:34.058Z,49.30
2022-11-16T08:00:21.435Z,51.80
2022-11-16T08:01:13.585Z,46.90
2022-11-16T08:02:00.497Z,48.35
2022-11-16T08:02:47.403Z,49.53
2022-11-16T08:03:35.760Z,47.55
2022-11-16T08:04:22.631Z,46.97
2022-11-16T08:05:09.991Z,47.00
2022-11-16T08:06:07.758Z,49.75
2022-11-16T08:06:54.906Z,49.55
2022-11-16T08:07:41.810Z,43.95
2022-11-16T08:08:28.853Z,48.05
2022-11-16T08:09:15.823Z,46.33
2022-11-16T08:10:02.837Z,47.13
2022-11-16T08:10:49.859Z,48.22
2022-11-16T08:11:39.091Z,43.90
2022-11-16T08:12:29.747Z,51.00
2022-11-16T08:14:03.738Z,45.67
2022-11-16T08:14:50.961Z,44.60
2022-11-16T08:15:37.793Z,46.13
2022-11-16T08:16:24.819Z,45.55
2022-11-16T08:17:11.608Z,50.50
2022-11-16T08:17:58.918Z,46.42
2022-11-16T08:18:46.095Z,42.95
2022-11-16T08:19:33.080Z,46.88
2022-11-16T08:20:19.980Z,44.85
2022-11-16T08:21:07.788Z,46.70
2022-11-16T08:21:54.765Z,46.78
2022-11-16T08:22:41.778Z,48.78
2022-11-16T08:23:29.787Z,44.95
2022-11-16T08:24:16.673Z,46.53
2022-11-16T08:25:03.869Z,44.75
2022-11-16T08:25:50.815Z,44.63
2022-11-16T08:26:37.766Z,48.65
2022-11-16T08:27:24.751Z,44.00
2022-11-16T08:28:11.792Z,43.47
2022-11-16T08:28:58.776Z,44.85
2022-11-16T08:29:45.942Z,46.47
2022-11-16T08:30:32.937Z,42.42
2022-11-16T08:31:21.845Z,48.28
2022-11-16T08:32:08.780Z,47.47
2022-11-16T08:32:58.113Z,47.20
2022-11-16T08:33:45.372Z,46.65
2022-11-16T08:34:32.313Z,47.80
2022-11-16T08:35:19.296Z,47.72
2022-11-16T08:36:13.643Z,45.75
2022-11-16T08:37:01.127Z,44.95
2022-11-16T08:37:48.007Z,44.72
2022-11-16T08:38:35.034Z,44.00
2022-11-16T08:39:22.190Z,43.42
2022-11-16T08:40:09.608Z,46.17
2022-11-16T08:40:56.539Z,43.00
2022-11-16T08:41:44.635Z,43.90
2022-11-16T08:42:31.849Z,46.63
2022-11-16T08:43:18.772Z,46.28
2022-11-16T08:44:05.762Z,42.95
2022-11-16T08:44:52.673Z,44.55
2022-11-16T08:45:40.047Z,44.22
2022-11-16T08:46:27.158Z,41.90
2022-11-16T08:47:14.147Z,43.67
2022-11-16T08:48:04.004Z,42.85
2022-11-16T08:48:56.032Z,45.35
2022-11-16T08:49:48.195Z,42.92
2022-11-16T08:51:09.936Z,41.78
2022-11-16T08:51:43.650Z,42.03
2022-11-16T08:52:30.529Z,42.03
2022-11-16T08:53:17.543Z,45.80
2022-11-16T08:54:05.448Z,43.97
2022-11-16T08:54:52.462Z,47.05
2022-11-16T08:55:39.431Z,40.83
2022-11-16T08:56:27.600Z,42.40
2022-11-16T08:57:14.705Z,39.47
2022-11-16T08:58:01.672Z,46.40
2022-11-16T08:58:51.477Z,44.10
2022-11-16T08:59:40.781Z,44.85
2022-11-16T09:00:28.183Z,40.65
2022-11-16T09:01:20.352Z,44.95
2022-11-16T09:02:07.250Z,46.95
2022-11-16T09:02:54.300Z,44.40
2022-11-16T09:03:42.062Z,41.63
2022-11-16T09:04:34.092Z,43.38
2022-11-16T09:05:23.658Z,46.00
2022-11-16T09:06:11.535Z,43.55
2022-11-16T09:06:58.708Z,45.78
2022-11-16T09:07:46.126Z,47.28
2022-11-16T09:08:33.611Z,44.65
2022-11-16T09:09:21.081Z,45.67
2022-11-16T09:10:08.720Z,47.03
2022-11-16T09:10:55.683Z,46.05
2022-11-16T09:11:42.711Z,43.58
2022-11-16T09:12:29.593Z,45.55
2022-11-16T09:13:16.454Z,48.67
2022-11-16T09:14:03.386Z,43.58
2022-11-16T09:14:50.643Z,43.25
2022-11-16T09:15:37.592Z,42.40
2022-11-16T09:16:24.767Z,44.53
2022-11-16T09:17:11.799Z,38.17
2022-11-16T09:17:58.811Z,41.88
2022-11-16T09:18:47.463Z,40.92
2022-11-16T09:19:34.381Z,42.67
2022-11-16T09:20:21.995Z,39.22
2022-11-16T09:21:09.212Z,39.28
2022-11-16T09:21:56.225Z,38.88
2022-11-16T09:22:43.184Z,41.80
2022-11-16T09:23:30.163Z,40.42
2022-11-16T09:24:17.347Z,37.30
2022-11-16T09:25:04.961Z,41.05
2022-11-16T09:25:51.877Z,43.45
2022-11-16T09:26:38.775Z,37.38
2022-11-16T09:27:25.662Z,38.70
2022-11-16T09:28:12.712Z,42.25
2022-11-16T09:29:00.921Z,38.45
2022-11-16T09:29:47.911Z,39.47
2022-11-16T09:30:34.841Z,38.72
2022-11-16T09:31:23.818Z,39.95
2022-11-16T09:32:11.009Z,38.65
2022-11-16T09:33:01.389Z,40.40
2022-11-16T09:33:48.945Z,37.40
2022-11-16T09:34:36.483Z,44.03
2022-11-16T09:35:23.490Z,40.90
2022-11-16T09:36:10.569Z,42.58
2022-11-16T09:36:57.433Z,46.47
2022-11-16T09:37:44.505Z,61.80
2022-11-16T09:38:54.299Z,43.65
2022-11-16T09:39:38.538Z,40.55
2022-11-16T09:40:37.186Z,40.10
2022-11-16T09:41:42.435Z,40.55
2022-11-16T09:42:38.577Z,41.35
2022-11-16T09:43:58.372Z,40.80
2022-11-16T09:44:52.704Z,41.22
2022-11-16T09:45:57.690Z,37.90
2022-11-16T09:46:50.176Z,36.70
2022-11-16T09:47:49.251Z,40.50
2022-11-16T09:48:37.603Z,39.63
2022-11-16T09:49:30.644Z,43.33
2022-11-16T09:50:40.853Z,43.95
2022-11-16T09:51:32.941Z,42.05
2022-11-16T09:52:30.895Z,45.60
2022-11-16T09:53:30.795Z,44.97
2022-11-16T09:54:21.909Z,39.63
2022-11-16T09:55:46.885Z,43.55
2022-11-16T09:56:37.069Z,44.75
2022-11-16T09:57:28.602Z,40.78
2022-11-16T09:58:20.598Z,41.05
2022-11-16T09:59:18.247Z,40.17
2022-11-16T10:00:14.356Z,42.67
2022-11-16T10:01:06.871Z,43.95
2022-11-16T10:02:05.941Z,41.17
2022-11-16T10:03:06.230Z,43.08
2022-11-16T10:04:03.793Z,44.03
2022-11-16T10:05:10.836Z,42.88
2022-11-16T10:06:07.201Z,44.53
2022-11-16T10:07:03.692Z,43.47
2022-11-16T10:08:00.034Z,41.95
2022-11-16T10:08:49.574Z,40.63
2022-11-16T10:09:36.614Z,43.92
2022-11-16T10:10:56.097Z,39.42
2022-11-16T10:12:08.305Z,44.35
2022-11-16T10:13:04.373Z,42.45
2022-11-16T10:14:19.376Z,43.72
2022-11-16T10:15:15.732Z,42.83
2022-11-16T10:16:10.521Z,41.88
2022-11-16T10:17:18.494Z,43.15
2022-11-16T10:18:08.063Z,47.53
2022-11-16T10:19:08.279Z,44.38
2022-11-16T10:19:57.684Z,43.40
2022-11-16T10:21:03.869Z,47.45
2022-11-16T10:22:14.068Z,45.75
2022-11-16T10:23:20.850Z,43.00
2022-11-16T10:24:29.372Z,44.22
2022-11-16T10:25:20.884Z,43.85
2022-11-16T10:26:29.422Z,44.10
2022-11-16T10:27:52.382Z,47.38
2022-11-16T10:28:58.223Z,44.25
2022-11-16T10:30:10.071Z,44.20
2022-11-16T10:31:00.552Z,45.88
2022-11-16T10:31:59.276Z,51.20
2022-11-16T10:32:59.753Z,44.22
2022-11-16T10:33:49.259Z,48.42
2022-11-16T10:35:17.070Z,44.90
2022-11-16T10:36:13.469Z,40.38
2022-11-16T10:37:04.085Z,45.25
2022-11-16T10:38:38.252Z,40.92
2022-11-16T10:39:25.583Z,39.70
2022-11-16T10:40:39.175Z,40.00
2022-11-16T10:41:26.011Z,41.42
2022-11-16T10:42:17.602Z,45.47
2022-11-16T10:43:17.929Z,42.72
2022-11-16T10:44:17.828Z,43.33
2022-11-16T10:45:23.051Z,41.07
2022-11-16T10:46:29.523Z,40.90
2022-11-16T10:47:20.297Z,40.80
2022-11-16T10:48:32.380Z,42.95
2022-11-16T10:49:37.233Z,43.85
2022-11-16T10:50:42.228Z,43.35
2022-11-16T10:51:29.283Z,44.38
2022-11-16T10:52:16.423Z,45.78
2022-11-16T10:53:03.446Z,45.25
2022-11-16T10:53:50.690Z,43.80
2022-11-16T10:54:41.447Z,43.92
2022-11-16T10:55:31.017Z,45.60
2022-11-16T10:56:27.943Z,41.22
2022-11-16T10:57:14.962Z,42.58
2022-11-16T10:58:05.208Z,43.00
2022-11-16T10:58:59.179Z,39.88
2022-11-16T10:59:47.203Z,42.95
2022-11-16T11:00:38.777Z,44.17
2022-11-16T11:01:36.683Z,39.13
2022-11-16T11:02:23.816Z,39.63
2022-11-16T11:03:12.264Z,45.30
2022-11-16T11:04:15.541Z,42.47
2022-11-16T11:05:08.076Z,40.88
2022-11-16T11:05:55.571Z,41.17
2022-11-16T11:06:42.975Z,42.03
2022-11-16T11:07:40.007Z,43.30
2022-11-16T11:08:30.817Z,44.42
2022-11-16T11:09:33.421Z,43.28
2022-11-16T11:10:35.746Z,42.58
2022-11-16T11:11:43.304Z,39.25
2022-11-16T11:12:39.115Z,45.97
2022-11-16T11:13:27.077Z,48.92
2022-11-16T11:14:17.201Z,44.30
2022-11-16T11:15:13.634Z,40.10
2022-11-16T11:16:18.676Z,44.63
2022-11-16T11:17:13.201Z,44.63